createdAt,value
2023-05-11T06:10:38.116Z,3.85
2023-05-11T12:01:29.124Z,2.63
2023-05-11T12:09:06.009Z,2.42
2023-05-11T12:16:30.740Z,1.90
2023-05-11T12:26:33.461Z,2.55
2023-05-11T12:31:41.426Z,3.10
2023-05-11T14:03:04.605Z,2.33
2023-05-11T14:05:32.030Z,2.30
2023-05-11T14:07:59.788Z,2.60
2023-05-11T18:30:15.991Z,3.90
2023-05-11T18:32:44.159Z,4.80
2023-05-11T18:35:11.685Z,4.63
2023-05-11T18:37:39.166Z,4.07
2023-05-11T18:40:08.072Z,5.05
2023-05-11T18:42:36.180Z,4.30
2023-05-11T18:45:03.977Z,5.00
2023-05-11T18:47:36.290Z,5.72
2023-05-11T18:50:04.668Z,4.82
2023-05-11T18:52:32.641Z,5.32
2023-05-11T18:55:00.438Z,5.53
2023-05-11T18:57:28.294Z,3.88
2023-05-11T18:59:55.784Z,4.32
2023-05-11T19:02:24.692Z,3.58
2023-05-11T19:04:52.774Z,4.15
2023-05-11T19:07:20.817Z,4.38
2023-05-11T19:09:48.838Z,4.50
2023-05-11T19:12:19.685Z,4.07
2023-05-11T19:14:47.726Z,5.32
2023-05-11T19:17:15.673Z,4.60
2023-05-11T19:19:43.543Z,4.00
2023-05-11T19:22:11.549Z,4.53
2023-05-11T19:24:39.163Z,4.80
2023-05-11T19:27:08.056Z,3.70
2023-05-11T19:29:36.146Z,3.95
2023-05-11T19:32:05.349Z,4.07
2023-05-11T19:34:34.015Z,4.45
2023-05-11T19:37:02.312Z,3.92
2023-05-11T19:39:30.246Z,6.18
2023-05-11T19:41:58.074Z,3.42
2023-05-11T19:44:26.029Z,3.75
2023-05-11T19:46:53.761Z,3.83
2023-05-11T19:49:21.865Z,3.13
2023-05-11T19:51:49.661Z,3.90
2023-05-11T19:54:17.625Z,3.28
2023-05-11T19:56:45.145Z,3.13
2023-05-11T19:59:12.814Z,5.18
2023-05-11T20:01:40.542Z,3.50
2023-05-11T20:04:08.196Z,3.60
2023-05-11T20:06:40.233Z,3.38
2023-05-11T20:09:09.828Z,3.80
2023-05-11T20:11:39.445Z,3.90
2023-05-11T20:14:09.644Z,4.35
2023-05-11T20:16:37.347Z,3.72
2023-05-11T20:19:05.862Z,3.80
2023-05-11T20:21:33.866Z,3.75
2023-05-11T20:24:01.888Z,3.90
2023-05-11T20:26:31.272Z,3.55
2023-05-11T20:28:59.039Z,3.40
2023-05-11T20:31:27.245Z,3.83
2023-05-11T20:36:25.296Z,3.60
2023-05-11T20:38:54.283Z,3.95
2023-05-11T20:41:22.229Z,3.85
2023-05-11T20:43:51.437Z,4.68
2023-05-11T20:46:19.213Z,4.15
2023-05-11T20:48:50.756Z,3.90
2023-05-11T20:51:28.765Z,4.38
2023-05-11T20:54:02.722Z,4.35
2023-05-11T20:56:34.394Z,3.88
2023-05-11T20:59:01.895Z,4.80
2023-05-11T21:01:29.721Z,4.28
2023-05-11T21:03:58.012Z,3.92
2023-05-11T21:06:25.857Z,3.88
2023-05-11T21:08:55.029Z,4.28
2023-05-11T21:11:22.881Z,4.40
2023-05-11T21:13:50.891Z,3.80
2023-05-11T21:16:18.771Z,4.03
2023-05-11T21:18:46.449Z,4.00
2023-05-11T21:21:13.981Z,3.95
2023-05-11T21:23:41.534Z,4.68
2023-05-11T21:26:09.246Z,4.25
2023-05-11T21:28:39.471Z,4.93
2023-05-11T21:31:07.538Z,4.82
2023-05-11T21:33:36.114Z,4.22
2023-05-11T21:36:05.847Z,4.30
2023-05-11T21:38:33.736Z,4.25
2023-05-11T21:41:01.418Z,4.57
2023-05-11T21:43:28.954Z,4.80
2023-05-11T21:45:57.359Z,4.97
2023-05-11T21:48:24.975Z,4.63
2023-05-11T21:50:54.130Z,5.50
2023-05-11T21:53:22.857Z,4.55
2023-05-11T21:55:50.887Z,4.25
2023-05-11T21:58:19.143Z,4.57
2023-05-11T22:00:46.988Z,5.20
2023-05-11T22:03:14.766Z,4.85
2023-05-11T22:05:42.670Z,4.97
2023-05-11T22:08:14.839Z,5.07
2023-05-11T22:10:43.551Z,4.97
2023-05-11T22:13:11.077Z,5.20
2023-05-11T22:15:39.192Z,4.88
2023-05-11T22:18:07.187Z,4.78
2023-05-11T22:20:34.932Z,4.63
2023-05-11T22:23:02.670Z,4.90
2023-05-11T22:25:30.465Z,5.63
2023-05-11T22:27:58.103Z,5.00
2023-05-11T22:30:25.678Z,5.20
2023-05-11T22:32:53.399Z,5.00
2023-05-11T22:35:21.601Z,5.03
2023-05-11T22:37:49.163Z,4.82
2023-05-11T22:40:17.271Z,5.22
2023-05-11T22:42:44.864Z,4.97
2023-05-11T22:45:12.649Z,4.93
2023-05-11T22:47:42.096Z,5.22
2023-05-11T22:50:12.256Z,4.45
2023-05-11T22:52:39.826Z,5.22
2023-05-11T22:55:08.035Z,5.43
2023-05-11T22:57:35.713Z,5.10
2023-05-11T23:00:04.150Z,5.55
2023-05-11T23:02:33.573Z,4.32
2023-05-11T23:05:01.378Z,4.80
2023-05-11T23:07:31.130Z,4.68
2023-05-11T23:09:59.028Z,5.30
2023-05-11T23:12:26.634Z,5.25
2023-05-11T23:14:54.720Z,5.53
2023-05-11T23:17:22.693Z,5.80
2023-05-11T23:19:50.136Z,5.43
2023-05-11T23:22:17.632Z,5.40
2023-05-11T23:24:45.849Z,5.25
2023-05-11T23:27:13.587Z,5.50
2023-05-11T23:29:41.270Z,5.20
2023-05-11T23:32:09.098Z,5.60
2023-05-11T23:34:38.118Z,5.90
2023-05-11T23:37:05.699Z,5.70
2023-05-11T23:39:33.665Z,4.90
2023-05-11T23:42:01.428Z,5.35
2023-05-11T23:44:29.186Z,5.30
2023-05-11T23:46:57.051Z,5.28
2023-05-11T23:49:24.836Z,5.00
2023-05-11T23:51:53.027Z,4.57
2023-05-11T23:54:20.763Z,5.07
2023-05-11T23:56:48.223Z,5.07
2023-05-11T23:59:15.765Z,4.97
